Monday, September 24, 2018, 9:21 PM GMT
Back to Local

CWEW, L'Assomption

Location: , , Canada Lat: 45.817
Local Time: 9:21 PM GMT (21:21 GMT) Lon: -73.433
Time Zone: GMT Elev: 68 ft

Show me the last for .
Show Coded

Time T Td Feel RH Dir Speed Gust Alt SLP Vis Weather Sky Remarks
2018-09-24 21:00 56 29 - 35 50° 7 - - 30.55 0 None
2018-09-24 20:00 56 29 - 35 60° 7 - - 30.55 0 None
2018-09-24 19:00 54 30 - 39 60° 9 17 - 30.57 0 None
2018-09-24 18:00 53 29 - 39 60° 7 - - 30.60 0 None
2018-09-24 17:00 51 31 - 44 60° 8 - - 30.62 0 None
2018-09-24 16:00 49 30 46 47 60° 8 - - 30.64 0 None
2018-09-24 15:00 48 29 44 48 70° 8 - - 30.65 0 None
2018-09-24 14:00 47 31 43 53 50° 8 - - 30.67 0 None
2018-09-24 13:00 43 31 38 63 30° 7 - - 30.66 0 None
2018-09-24 12:00 38 28 33 66 30° 7 - - 30.65 0 None
2018-09-24 11:00 36 28 31 72 10° 6 - - 30.63 0 None
2018-09-24 10:00 37 28 33 68 20° 6 - - 30.61 0 None
2018-09-24 09:00 38 29 33 69 20° 6 - - 30.59 0 None
2018-09-24 08:00 40 29 35 66 20° 7 - - 30.57 0 None
2018-09-24 07:00 43 30 38 60 20° 7 - - 30.55 0 None
2018-09-24 06:00 45 31 41 59 10° 6 - - 30.53 0 None
2018-09-24 05:00 45 32 43 59 20° 5 - - 30.52 0 None
2018-09-24 04:00 46 31 43 57 20° 6 - - 30.51 0 None
2018-09-24 03:00 46 31 44 55 20° 5 - - 30.49 0 None
2018-09-24 02:00 47 33 44 59 30° 6 - - 30.47 0 None
2018-09-24 01:00 47 35 44 62 30° 7 - - 30.46 0 None
2018-09-24 00:00 48 38 46 66 40° 6 - - 30.42 0 None
2018-09-23 23:00 49 38 46 64 30° 7 - - 30.39 0 None
2018-09-23 22:00 50 38 - 61 20° 8 - - 30.35 0 None

Support USWX by starting your Amazon purchase here.